createdAt,value
2023-02-12T00:00:20.985Z,16.08
2023-02-12T00:02:48.690Z,15.35
2023-02-12T00:05:16.941Z,17.63
2023-02-12T00:07:44.647Z,17.17
2023-02-12T00:10:13.133Z,17.33
2023-02-12T00:12:40.914Z,16.33
2023-02-12T00:15:10.600Z,15.43
2023-02-12T00:17:38.350Z,16.15
2023-02-12T00:20:07.162Z,15.30
2023-02-12T00:22:34.996Z,14.90
2023-02-12T00:25:02.753Z,16.33
2023-02-12T00:27:33.230Z,16.98
2023-02-12T00:30:01.026Z,17.15
2023-02-12T00:32:30.148Z,17.95
2023-02-12T00:34:57.883Z,16.45
2023-02-12T00:37:25.653Z,16.20
2023-02-12T00:39:53.422Z,17.42
2023-02-12T00:42:21.309Z,17.83
2023-02-12T00:44:49.043Z,17.95
2023-02-12T00:47:16.945Z,17.45
2023-02-12T00:49:46.059Z,17.77
2023-02-12T00:52:13.800Z,18.55
2023-02-12T00:54:41.560Z,18.75
2023-02-12T00:57:09.344Z,18.13
2023-02-12T00:59:39.963Z,17.55
2023-02-12T01:02:07.884Z,18.25
2023-02-12T01:04:35.693Z,17.25
2023-02-12T01:07:04.757Z,18.20
2023-02-12T01:09:32.458Z,18.17
2023-02-12T01:12:00.182Z,19.48
2023-02-12T01:14:27.957Z,17.83
2023-02-12T01:16:55.737Z,17.25
2023-02-12T01:19:23.531Z,18.30
2023-02-12T01:21:51.211Z,17.33
2023-02-12T01:24:20.271Z,17.20
2023-02-12T01:26:48.078Z,18.50
2023-02-12T01:29:15.901Z,18.08
2023-02-12T01:31:43.809Z,18.17
2023-02-12T01:34:12.985Z,17.98
2023-02-12T01:36:40.878Z,18.67
2023-02-12T01:39:08.644Z,18.08
2023-02-12T01:41:41.214Z,18.90
2023-02-12T01:44:18.071Z,19.42
2023-02-12T01:46:47.069Z,18.27
2023-02-12T01:49:20.176Z,17.88
2023-02-12T01:51:49.977Z,18.00
2023-02-12T01:54:20.298Z,17.65
2023-02-12T01:56:49.940Z,18.55
2023-02-12T01:59:19.566Z,18.20
2023-02-12T02:01:47.496Z,18.52
2023-02-12T02:04:18.003Z,18.58
2023-02-12T02:06:51.793Z,17.65
2023-02-12T02:09:21.026Z,18.05
2023-02-12T02:12:07.666Z,18.15
2023-02-12T02:17:21.591Z,18.52
2023-02-12T02:20:15.158Z,18.70
2023-02-12T02:22:46.531Z,19.55
2023-02-12T02:25:56.591Z,18.83
2023-02-12T02:28:44.176Z,19.15
2023-02-12T02:31:18.645Z,17.02
2023-02-12T02:33:56.309Z,18.70
2023-02-12T02:36:30.695Z,18.10
2023-02-12T02:39:06.249Z,17.90
2023-02-12T02:41:39.955Z,17.25
2023-02-12T02:44:14.495Z,17.95
2023-02-12T02:46:48.145Z,18.83
2023-02-12T02:49:20.549Z,17.98
2023-02-12T02:51:53.438Z,18.55
2023-02-12T02:54:26.999Z,19.15
2023-02-12T02:57:01.796Z,18.65
2023-02-12T02:59:35.167Z,16.98
2023-02-12T03:02:09.875Z,18.33
2023-02-12T03:04:42.210Z,17.90
2023-02-12T03:07:14.503Z,18.95
2023-02-12T03:09:45.847Z,19.48
2023-02-12T03:12:19.299Z,18.65
2023-02-12T03:14:53.115Z,18.65
2023-02-12T03:17:26.253Z,18.10
2023-02-12T03:19:59.293Z,18.33
2023-02-12T03:22:31.904Z,17.90
2023-02-12T03:25:09.572Z,18.10
2023-02-12T03:27:40.202Z,18.38
2023-02-12T03:30:09.492Z,19.65
2023-02-12T03:32:47.356Z,18.52
2023-02-12T03:35:21.796Z,17.92
2023-02-12T03:37:57.686Z,19.73
2023-02-12T03:40:32.746Z,20.23
2023-02-12T03:43:07.636Z,20.08
2023-02-12T03:45:42.668Z,17.80
2023-02-12T03:48:18.347Z,18.52
2023-02-12T03:50:51.539Z,19.35
2023-02-12T03:53:19.446Z,19.30
2023-02-12T03:55:52.321Z,18.95
2023-02-12T03:58:24.605Z,18.85
2023-02-12T04:00:52.887Z,18.80
2023-02-12T04:03:22.201Z,19.00
2023-02-12T04:05:49.882Z,18.95
2023-02-12T04:08:17.764Z,18.88
2023-02-12T04:10:57.426Z,16.77
2023-02-12T04:13:33.580Z,19.95
2023-02-12T04:18:42.203Z,17.92
2023-02-12T04:21:19.016Z,19.08
2023-02-12T04:23:51.375Z,19.42
2023-02-12T04:26:25.211Z,18.33
2023-02-12T04:29:06.254Z,18.80
2023-02-12T04:31:39.679Z,18.45
2023-02-12T04:34:15.013Z,17.10
2023-02-12T04:36:47.878Z,18.80
2023-02-12T04:39:21.145Z,17.13
2023-02-12T04:41:49.182Z,17.27
2023-02-12T04:44:19.495Z,17.23
2023-02-12T04:46:47.317Z,16.92
2023-02-12T04:49:18.831Z,16.67
2023-02-12T04:51:47.529Z,15.88
2023-02-12T04:54:15.914Z,16.17
2023-02-12T04:56:44.544Z,16.65
2023-02-12T04:59:12.657Z,17.60
2023-02-12T05:01:41.466Z,17.10
2023-02-12T05:04:10.895Z,16.65
2023-02-12T05:06:40.823Z,16.02
2023-02-12T05:09:09.579Z,17.55
2023-02-12T05:11:37.370Z,16.40
2023-02-12T05:14:05.076Z,17.13
2023-02-12T05:16:32.987Z,18.58
2023-02-12T05:19:00.696Z,17.65
2023-02-12T05:21:28.487Z,16.75
2023-02-12T05:23:57.527Z,17.30
2023-02-12T05:26:25.561Z,17.33
2023-02-12T05:28:53.414Z,16.52
2023-02-12T05:31:22.146Z,16.63
2023-02-12T05:33:50.626Z,16.75
2023-02-12T05:36:21.281Z,15.85
2023-02-12T05:38:49.708Z,17.15
2023-02-12T05:41:20.863Z,17.38
2023-02-12T05:43:49.951Z,15.80
2023-02-12T05:46:18.727Z,16.88
2023-02-12T05:48:47.093Z,16.58
2023-02-12T05:51:16.322Z,15.77
2023-02-12T05:53:44.320Z,16.67
2023-02-12T05:56:14.922Z,18.73
2023-02-12T05:58:45.982Z,18.08
2023-02-12T06:01:16.161Z,17.73
2023-02-12T06:03:44.179Z,17.95
2023-02-12T06:06:12.936Z,17.10
2023-02-12T06:08:40.710Z,16.15
2023-02-12T06:11:11.520Z,18.35
2023-02-12T06:13:39.274Z,17.40
2023-02-12T06:16:09.024Z,15.32
2023-02-12T06:18:37.188Z,16.30
2023-02-12T06:21:05.378Z,16.20
2023-02-12T06:23:33.069Z,19.20
2023-02-12T06:26:00.808Z,17.55
2023-02-12T06:28:28.554Z,16.92
2023-02-12T06:30:56.406Z,16.70
2023-02-12T06:33:25.613Z,16.92
2023-02-12T06:35:53.729Z,16.33
2023-02-12T06:38:21.710Z,15.93
2023-02-12T06:40:49.454Z,17.08
2023-02-12T06:43:17.173Z,17.65
2023-02-12T06:45:44.990Z,16.30
2023-02-12T06:48:12.677Z,17.98
2023-02-12T06:50:41.679Z,18.63
2023-02-12T06:53:09.415Z,20.00
2023-02-12T06:55:37.140Z,21.63
2023-02-12T06:58:05.050Z,23.20
2023-02-12T07:00:32.919Z,22.73
2023-02-12T07:03:00.630Z,19.98
2023-02-12T07:05:28.450Z,22.40
2023-02-12T07:07:57.535Z,19.80
2023-02-12T07:10:25.242Z,19.80
2023-02-12T07:12:52.948Z,19.23
2023-02-12T07:15:20.646Z,17.67
2023-02-12T07:17:48.333Z,16.00
2023-02-12T07:20:16.150Z,17.48
2023-02-12T07:22:44.045Z,16.30
2023-02-12T07:25:13.142Z,15.75
2023-02-12T07:27:40.904Z,16.20
2023-02-12T07:30:09.923Z,15.00
2023-02-12T07:32:37.675Z,15.65
2023-02-12T07:35:05.903Z,15.32
2023-02-12T07:37:34.935Z,14.80
2023-02-12T07:40:02.753Z,13.75
2023-02-12T07:42:31.807Z,14.85
2023-02-12T07:44:59.538Z,13.77
2023-02-12T07:47:27.281Z,14.55
2023-02-12T07:49:55.550Z,12.65
2023-02-12T07:52:23.327Z,15.18
2023-02-12T07:54:51.145Z,14.98
2023-02-12T07:57:19.040Z,14.80
2023-02-12T07:59:48.086Z,13.52
2023-02-12T08:02:15.825Z,13.45
2023-02-12T08:04:44.129Z,14.93
2023-02-12T08:07:11.941Z,14.13
2023-02-12T08:09:39.740Z,14.20
2023-02-12T08:12:07.885Z,13.65
2023-02-12T08:14:35.781Z,14.35
2023-02-12T08:17:05.029Z,14.50
2023-02-12T08:19:32.914Z,12.48
2023-02-12T08:22:02.983Z,14.10
2023-02-12T08:24:31.306Z,13.98
2023-02-12T08:26:59.258Z,13.15
2023-02-12T08:29:28.712Z,13.43
2023-02-12T08:31:58.903Z,13.40
2023-02-12T08:34:30.834Z,12.68
2023-02-12T08:36:59.098Z,13.65
2023-02-12T08:39:29.674Z,12.38
2023-02-12T08:41:58.066Z,13.68
2023-02-12T08:44:26.683Z,12.95
2023-02-12T08:46:55.847Z,13.82
2023-02-12T08:49:25.190Z,13.73
2023-02-12T08:51:56.420Z,13.43
2023-02-12T08:54:26.778Z,18.35
2023-02-12T08:56:56.529Z,17.90
2023-02-12T08:59:24.275Z,17.70
2023-02-12T09:01:54.885Z,15.15
2023-02-12T09:04:27.014Z,16.08
2023-02-12T09:06:58.703Z,15.60
2023-02-12T09:09:28.552Z,16.85
2023-02-12T09:11:58.108Z,14.90
2023-02-12T09:14:27.715Z,14.43
2023-02-12T09:16:58.610Z,15.30
2023-02-12T09:19:28.456Z,15.63
2023-02-12T09:21:59.313Z,15.88
2023-02-12T09:24:29.085Z,15.48
2023-02-12T09:26:58.725Z,14.55
2023-02-12T09:29:28.422Z,14.80
2023-02-12T09:31:58.344Z,15.43
2023-02-12T09:34:28.234Z,16.15
2023-02-12T09:36:58.631Z,15.95
2023-02-12T09:39:31.030Z,15.00
2023-02-12T09:42:23.941Z,15.75
2023-02-12T09:45:00.608Z,15.38
2023-02-12T09:47:37.014Z,15.07
2023-02-12T09:50:28.448Z,18.30
2023-02-12T09:53:00.232Z,18.58
2023-02-12T09:55:33.089Z,17.13
2023-02-12T09:58:03.057Z,19.58
2023-02-12T10:00:32.643Z,19.77
2023-02-12T10:03:05.522Z,16.17
2023-02-12T10:05:38.876Z,20.88
2023-02-12T10:08:27.107Z,19.05
2023-02-12T10:11:00.852Z,17.45
2023-02-12T10:13:41.027Z,17.55
2023-02-12T10:16:21.116Z,17.55
2023-02-12T10:19:04.166Z,21.95
2023-02-12T10:21:45.306Z,21.35
2023-02-12T10:24:44.962Z,17.35
2023-02-12T10:27:16.002Z,19.67
2023-02-12T10:29:45.948Z,17.23
2023-02-12T10:32:20.443Z,17.13
2023-02-12T10:34:50.748Z,17.38
2023-02-12T10:37:29.217Z,16.92
2023-02-12T10:40:01.780Z,17.05
2023-02-12T10:42:39.215Z,20.17
2023-02-12T10:45:13.881Z,19.33
2023-02-12T10:47:41.695Z,17.98
2023-02-12T10:50:20.664Z,17.55
2023-02-12T10:52:53.179Z,17.60
2023-02-12T10:55:30.341Z,17.02
2023-02-12T10:57:59.599Z,16.70
2023-02-12T11:00:31.506Z,18.75
2023-02-12T11:03:06.084Z,15.20
2023-02-12T11:05:36.353Z,14.88
2023-02-12T11:08:05.109Z,14.65
2023-02-12T11:10:38.406Z,14.80
2023-02-12T11:13:07.523Z,14.82
2023-02-12T11:15:39.499Z,13.57
2023-02-12T11:18:09.560Z,13.73
2023-02-12T11:20:41.161Z,14.05
2023-02-12T11:23:27.057Z,14.18
2023-02-12T11:26:00.515Z,13.07
2023-02-12T11:28:30.086Z,12.13
2023-02-12T11:31:00.010Z,11.52
2023-02-12T11:33:31.099Z,13.00
2023-02-12T11:36:01.460Z,9.32
2023-02-12T11:38:33.049Z,11.23
2023-02-12T11:41:08.482Z,9.18
2023-02-12T11:43:39.552Z,9.80
2023-02-12T11:46:09.148Z,12.20
2023-02-12T11:48:39.726Z,9.07
2023-02-12T11:51:10.355Z,7.70
2023-02-12T11:53:43.151Z,8.07
2023-02-12T11:56:14.489Z,7.55
2023-02-12T11:58:43.013Z,7.55
2023-02-12T12:01:17.011Z,6.25
2023-02-12T12:03:54.094Z,6.47
2023-02-12T12:06:31.944Z,6.72
2023-02-12T12:09:07.051Z,9.40
2023-02-12T12:11:42.734Z,8.43
2023-02-12T12:14:17.891Z,13.77
2023-02-12T12:17:12.981Z,6.50
2023-02-12T12:19:54.710Z,6.60
2023-02-12T12:22:41.173Z,35.45
2023-02-12T12:28:03.722Z,64.80
2023-02-12T12:30:53.185Z,9.38
2023-02-12T12:33:30.652Z,11.45
2023-02-12T12:36:19.670Z,5.07
2023-02-12T12:38:55.507Z,4.65
2023-02-12T12:41:35.454Z,5.32
2023-02-12T12:44:18.494Z,8.35
2023-02-12T12:47:01.698Z,6.70
2023-02-12T12:49:45.740Z,14.05
2023-02-12T12:52:28.504Z,9.20
2023-02-12T12:55:19.268Z,7.72
2023-02-12T12:57:59.180Z,5.53
2023-02-12T13:00:42.786Z,21.52
2023-02-12T13:03:44.260Z,6.53
2023-02-12T13:06:25.912Z,4.32
2023-02-12T13:09:08.793Z,4.00
2023-02-12T13:11:45.585Z,2.78
2023-02-12T13:14:31.837Z,5.82
2023-02-12T13:19:43.533Z,4.03
2023-02-12T13:22:20.245Z,3.33
2023-02-12T13:24:55.398Z,2.92
2023-02-12T13:27:26.958Z,3.47
2023-02-12T13:30:00.765Z,3.28
2023-02-12T13:32:33.167Z,3.13
2023-02-12T13:35:03.284Z,3.13
2023-02-12T13:37:39.027Z,2.70
2023-02-12T13:40:10.316Z,2.92
2023-02-12T13:42:46.551Z,2.40
2023-02-12T13:45:25.777Z,2.70
2023-02-12T13:48:07.603Z,3.22
2023-02-12T13:50:42.822Z,3.35
2023-02-12T13:53:21.254Z,2.90
2023-02-12T13:56:07.178Z,2.70
2023-02-12T13:58:49.808Z,2.60
2023-02-12T14:01:38.557Z,1.80
2023-02-12T14:04:30.805Z,2.45
2023-02-12T14:07:01.663Z,2.00
2023-02-12T14:09:37.818Z,2.25
2023-02-12T14:12:07.716Z,3.20
2023-02-12T14:14:38.247Z,3.00
2023-02-12T14:17:51.022Z,5.25
2023-02-12T14:20:26.518Z,3.05
2023-02-12T14:23:22.614Z,2.83
2023-02-12T14:25:59.495Z,2.70
2023-02-12T14:28:34.577Z,3.42
2023-02-12T14:31:44.328Z,4.20
2023-02-12T14:34:49.290Z,3.70
2023-02-12T14:37:38.281Z,3.53
2023-02-12T14:40:44.349Z,3.83
2023-02-12T14:43:28.985Z,3.30
2023-02-12T14:45:58.938Z,2.97
2023-02-12T14:48:52.949Z,2.95
2023-02-12T14:51:28.094Z,3.42
2023-02-12T14:53:58.048Z,3.53
2023-02-12T14:56:26.397Z,3.10
2023-02-12T14:58:56.924Z,4.22
2023-02-12T15:01:32.544Z,3.70
2023-02-12T15:04:12.529Z,5.30
2023-02-12T15:06:49.327Z,4.60
2023-02-12T15:09:26.515Z,5.63
2023-02-12T15:11:59.915Z,4.70
2023-02-12T15:14:31.801Z,4.28
2023-02-12T15:17:04.718Z,4.57
2023-02-12T15:19:41.576Z,4.40
2023-02-12T15:22:25.425Z,4.75
2023-02-12T15:24:54.602Z,5.63
2023-02-12T15:27:22.838Z,8.57
2023-02-12T15:29:53.480Z,8.82
2023-02-12T15:32:26.670Z,5.82
2023-02-12T15:34:55.581Z,4.95
2023-02-12T15:37:26.697Z,5.70
2023-02-12T15:39:59.077Z,6.47
2023-02-12T15:42:29.911Z,6.10
2023-02-12T15:45:17.596Z,5.88
2023-02-12T15:47:47.020Z,6.35
2023-02-12T15:50:16.459Z,6.13
2023-02-12T15:52:47.451Z,5.57
2023-02-12T15:55:19.640Z,5.57
2023-02-12T15:57:51.294Z,5.55
2023-02-12T16:00:29.547Z,6.22
2023-02-12T16:02:57.543Z,6.75
2023-02-12T16:05:26.734Z,6.60
2023-02-12T16:07:55.256Z,6.20
2023-02-12T16:10:25.009Z,6.00
2023-02-12T16:12:53.625Z,6.03
2023-02-12T16:15:27.867Z,6.03
2023-02-12T16:17:57.117Z,6.15
2023-02-12T16:20:28.117Z,6.10
2023-02-12T16:22:56.754Z,6.78
2023-02-12T16:25:28.086Z,8.30
2023-02-12T16:28:00.910Z,9.80
2023-02-12T16:30:31.049Z,12.38
2023-02-12T16:32:59.608Z,13.02
2023-02-12T16:35:31.132Z,12.07
2023-02-12T16:38:05.466Z,12.02
2023-02-12T16:40:37.617Z,12.18
2023-02-12T16:43:25.981Z,12.20
2023-02-12T16:46:05.253Z,9.93
2023-02-12T16:48:40.033Z,10.18
2023-02-12T16:51:08.118Z,10.48
2023-02-12T16:53:43.439Z,10.10
2023-02-12T16:56:18.208Z,9.93
2023-02-12T16:58:48.409Z,9.77
2023-02-12T17:01:19.419Z,9.90
2023-02-12T17:03:50.426Z,9.60
2023-02-12T17:06:20.302Z,10.70
2023-02-12T17:08:48.184Z,11.60
2023-02-12T17:11:17.966Z,12.40
2023-02-12T17:13:46.569Z,12.50
2023-02-12T17:16:29.512Z,11.82
2023-02-12T17:18:58.645Z,12.57
2023-02-12T17:21:29.256Z,12.73
2023-02-12T17:23:57.278Z,12.93
2023-02-12T17:26:26.590Z,12.30
2023-02-12T17:28:54.497Z,11.82
2023-02-12T17:31:23.742Z,13.00
2023-02-12T17:33:51.922Z,13.40
2023-02-12T17:36:19.754Z,14.30
2023-02-12T17:38:47.652Z,15.45
2023-02-12T17:41:15.628Z,14.95
2023-02-12T17:43:44.941Z,14.57
2023-02-12T17:46:14.161Z,14.32
2023-02-12T17:48:42.087Z,15.15
2023-02-12T17:51:11.420Z,16.13
2023-02-12T17:53:39.248Z,16.73
2023-02-12T17:56:11.453Z,17.20
2023-02-12T17:58:39.711Z,16.20
2023-02-12T18:01:11.093Z,17.23
2023-02-12T18:03:39.661Z,16.15
2023-02-12T18:06:08.661Z,17.60
2023-02-12T18:08:36.796Z,19.48
2023-02-12T18:11:07.073Z,19.20
2023-02-12T18:13:34.992Z,20.50
2023-02-12T18:16:03.092Z,22.15
2023-02-12T18:18:32.396Z,19.58
2023-02-12T18:21:00.234Z,20.05
2023-02-12T18:23:27.962Z,19.70
2023-02-12T18:25:55.775Z,20.95
2023-02-12T18:28:23.683Z,20.48
2023-02-12T18:30:57.957Z,19.85
2023-02-12T18:33:26.649Z,20.63
2023-02-12T18:36:04.970Z,19.65
2023-02-12T18:38:33.733Z,16.00
2023-02-12T18:41:05.942Z,17.70
2023-02-12T18:43:35.978Z,18.52
2023-02-12T18:46:07.608Z,17.00
2023-02-12T18:48:35.510Z,19.38
2023-02-12T18:51:05.986Z,20.98
2023-02-12T18:53:33.888Z,20.48
2023-02-12T18:56:05.740Z,19.98
2023-02-12T18:58:33.562Z,20.50
2023-02-12T19:01:01.432Z,19.48
2023-02-12T19:03:29.375Z,19.30
2023-02-12T19:06:05.833Z,19.58
2023-02-12T19:08:33.915Z,16.77
2023-02-12T19:11:02.051Z,17.23
2023-02-12T19:13:29.912Z,17.13
2023-02-12T19:15:58.107Z,16.13
2023-02-12T19:18:25.932Z,16.85
2023-02-12T19:20:53.789Z,15.60
2023-02-12T19:23:22.966Z,15.05
2023-02-12T19:25:50.805Z,16.40
2023-02-12T19:28:18.768Z,14.95
2023-02-12T19:30:46.650Z,18.80
2023-02-12T19:33:14.527Z,15.82
2023-02-12T19:35:43.270Z,15.73
2023-02-12T19:38:11.049Z,16.02
2023-02-12T19:40:40.258Z,14.45
2023-02-12T19:43:08.122Z,15.77
2023-02-12T19:45:36.028Z,16.23
2023-02-12T19:48:03.790Z,15.07
2023-02-12T19:50:33.699Z,14.02
2023-02-12T19:53:02.936Z,15.52
2023-02-12T19:55:30.975Z,18.33
2023-02-12T19:58:00.094Z,14.70
2023-02-12T20:00:27.919Z,14.05
2023-02-12T20:02:55.702Z,14.45
2023-02-12T20:05:23.655Z,14.63
2023-02-12T20:07:51.879Z,12.13
2023-02-12T20:10:19.831Z,10.98
2023-02-12T20:12:47.543Z,13.50
2023-02-12T20:15:16.884Z,11.38
2023-02-12T20:17:44.865Z,12.63
2023-02-12T20:20:14.397Z,12.38
2023-02-12T20:22:42.256Z,13.68
2023-02-12T20:25:10.074Z,12.85
2023-02-12T20:27:37.875Z,12.23
2023-02-12T20:30:07.073Z,10.98
2023-02-12T20:32:36.295Z,10.20
2023-02-12T20:35:04.306Z,10.98
2023-02-12T20:37:33.202Z,10.20
2023-02-12T20:40:01.110Z,10.88
2023-02-12T20:42:29.246Z,10.40
2023-02-12T20:44:57.391Z,10.35
2023-02-12T20:47:28.832Z,9.55
2023-02-12T20:49:58.890Z,11.40
2023-02-12T20:52:27.162Z,12.32
2023-02-12T20:54:54.963Z,11.88
2023-02-12T20:57:23.183Z,11.77
2023-02-12T20:59:51.445Z,14.48
2023-02-12T21:02:19.426Z,13.52
2023-02-12T21:04:47.583Z,16.17
2023-02-12T21:07:17.002Z,17.73
2023-02-12T21:09:44.718Z,14.50
2023-02-12T21:12:12.524Z,16.33
2023-02-12T21:14:40.397Z,17.63
2023-02-12T21:17:08.124Z,15.70
2023-02-12T21:19:37.065Z,11.85
2023-02-12T21:22:05.378Z,13.13
2023-02-12T21:24:34.965Z,13.18
2023-02-12T21:27:02.695Z,9.75
2023-02-12T21:29:33.171Z,9.52
2023-02-12T21:32:01.548Z,9.48
2023-02-12T21:34:30.676Z,8.18
2023-02-12T21:36:58.663Z,8.93
2023-02-12T21:39:28.526Z,9.48
2023-02-12T21:41:59.859Z,8.30
2023-02-12T21:44:28.330Z,8.05
2023-02-12T21:46:56.589Z,8.52
2023-02-12T21:49:28.209Z,9.02
2023-02-12T21:51:58.314Z,8.68
2023-02-12T21:54:27.109Z,8.75
2023-02-12T21:56:55.467Z,7.82
2023-02-12T21:59:26.327Z,8.73
2023-02-12T22:01:58.100Z,9.68
2023-02-12T22:04:26.294Z,10.57
2023-02-12T22:06:54.486Z,9.60
2023-02-12T22:09:23.655Z,10.40
2023-02-12T22:11:52.876Z,10.98
2023-02-12T22:14:22.197Z,8.52
2023-02-12T22:16:51.561Z,10.85
2023-02-12T22:19:19.422Z,10.02
2023-02-12T22:21:47.132Z,9.30
2023-02-12T22:24:16.864Z,9.40
2023-02-12T22:26:45.435Z,9.80
2023-02-12T22:29:14.808Z,10.05
2023-02-12T22:31:44.553Z,9.27
2023-02-12T22:34:15.669Z,9.18
2023-02-12T22:36:43.833Z,9.70
2023-02-12T22:39:13.671Z,9.30
2023-02-12T22:41:42.965Z,10.90
2023-02-12T22:44:12.584Z,9.40
2023-02-12T22:46:40.375Z,9.18
2023-02-12T22:49:08.135Z,8.95
2023-02-12T22:51:39.417Z,10.57
2023-02-12T22:54:07.308Z,11.45
2023-02-12T22:56:35.134Z,9.52
2023-02-12T22:59:03.448Z,9.45
2023-02-12T23:01:31.735Z,10.32
2023-02-12T23:03:59.879Z,12.23
2023-02-12T23:06:29.459Z,10.10
2023-02-12T23:09:00.952Z,8.75
2023-02-12T23:11:30.159Z,8.57
2023-02-12T23:13:58.975Z,9.27
2023-02-12T23:16:26.974Z,11.43
2023-02-12T23:18:56.511Z,9.65
2023-02-12T23:21:24.398Z,9.65
2023-02-12T23:23:52.442Z,9.27
2023-02-12T23:26:21.694Z,8.65
2023-02-12T23:28:49.666Z,9.30
2023-02-12T23:31:17.768Z,8.40
2023-02-12T23:33:45.664Z,9.68
2023-02-12T23:36:13.414Z,9.13
2023-02-12T23:38:41.156Z,9.43
2023-02-12T23:41:09.014Z,8.75
2023-02-12T23:43:38.163Z,8.93
2023-02-12T23:46:06.189Z,9.48
2023-02-12T23:48:34.008Z,9.23
2023-02-12T23:51:01.786Z,8.60
2023-02-12T23:53:29.503Z,9.52
2023-02-12T23:55:57.200Z,9.15
2023-02-12T23:58:25.239Z,9.30
